Terminal Aerodrome Forecast
Issued by NWS

Home | Current Version | Previous Version | Text Only | Print | Product List | Glossary On
Versions: 1 2 3 4 5 6 7 8 9 10 11 12 13
000
FTUS42 KMLB 231143
TAFTIX
TAF
KTIX 231143Z 2312/2412 22006KT P6SM VCSH SCT006 BKN015 OVC035
      TEMPO 2312/2315 5SM -SHRA BKN015
     FM231500 05007KT P6SM VCSH SCT020 OVC035
      TEMPO 2315/2318 5SM SHRA BKN020
     FM231800 03009KT P6SM SCT015 BKN040=

USA.gov is the U.S. government's official web portal to all federal, state and local government web resources and services.